sensor_id;sensor_type;location;lat;lon;timestamp;pressure;altitude;pressure_sealevel;temperature
58102;BMP280;52034;51.926;6.320;2023-07-29T00:00:07;100635.19;;;20.34
58102;BMP280;52034;51.926;6.320;2023-07-29T00:01:12;100633.75;;;20.31
58102;BMP280;52034;51.926;6.320;2023-07-29T00:02:13;100633.75;;;20.33
58102;BMP280;52034;51.926;6.320;2023-07-29T00:03:13;100633.06;;;20.31
58102;BMP280;52034;51.926;6.320;2023-07-29T00:04:13;100640.16;;;20.34
58102;BMP280;52034;51.926;6.320;2023-07-29T00:05:14;100635.19;;;20.30
58102;BMP280;52034;51.926;6.320;2023-07-29T00:06:14;100638.06;;;20.28
58102;BMP280;52034;51.926;6.320;2023-07-29T00:07:15;100636.69;;;20.25
58102;BMP280;52034;51.926;6.320;2023-07-29T00:08:15;100637.44;;;20.18
58102;BMP280;52034;51.926;6.320;2023-07-29T00:09:15;100643.09;;;20.22
58102;BMP280;52034;51.926;6.320;2023-07-29T00:10:16;100644.50;;;20.27
58102;BMP280;52034;51.926;6.320;2023-07-29T00:11:16;100638.09;;;20.26
58102;BMP280;52034;51.926;6.320;2023-07-29T00:12:16;100650.22;;;20.27
58102;BMP280;52034;51.926;6.320;2023-07-29T00:13:17;100644.50;;;20.23
58102;BMP280;52034;51.926;6.320;2023-07-29T00:14:17;100640.28;;;20.20
58102;BMP280;52034;51.926;6.320;2023-07-29T00:15:18;100640.25;;;20.22
58102;BMP280;52034;51.926;6.320;2023-07-29T00:16:18;100632.44;;;20.22
58102;BMP280;52034;51.926;6.320;2023-07-29T00:17:22;100643.06;;;20.26
58102;BMP280;52034;51.926;6.320;2023-07-29T00:18:22;100651.59;;;20.28
58102;BMP280;52034;51.926;6.320;2023-07-29T00:19:23;100643.06;;;20.28
58102;BMP280;52034;51.926;6.320;2023-07-29T00:20:24;100638.81;;;20.27
58102;BMP280;52034;51.926;6.320;2023-07-29T00:21:24;100636.63;;;20.27
58102;BMP280;52034;51.926;6.320;2023-07-29T00:22:25;100633.81;;;20.23
58102;BMP280;52034;51.926;6.320;2023-07-29T00:23:25;100636.69;;;20.25
58102;BMP280;52034;51.926;6.320;2023-07-29T00:24:25;100633.13;;;20.21
58102;BMP280;52034;51.926;6.320;2023-07-29T00:25:26;100633.13;;;20.19
58102;BMP280;52034;51.926;6.320;2023-07-29T00:26:27;100638.81;;;20.19
58102;BMP280;52034;51.926;6.320;2023-07-29T00:27:29;100641.69;;;20.19
58102;BMP280;52034;51.926;6.320;2023-07-29T00:28:29;100642.44;;;20.15
58102;BMP280;52034;51.926;6.320;2023-07-29T00:29:29;100639.59;;;20.13
58102;BMP280;52034;51.926;6.320;2023-07-29T00:30:30;100639.63;;;20.07
58102;BMP280;52034;51.926;6.320;2023-07-29T00:31:30;100635.31;;;20.10
58102;BMP280;52034;51.926;6.320;2023-07-29T00:32:31;100638.22;;;20.06
58102;BMP280;52034;51.926;6.320;2023-07-29T00:33:31;100638.94;;;20.05
58102;BMP280;52034;51.926;6.320;2023-07-29T00:34:33;100630.38;;;20.03
58102;BMP280;52034;51.926;6.320;2023-07-29T00:35:34;100633.22;;;20.03
58102;BMP280;52034;51.926;6.320;2023-07-29T00:36:35;100629.69;;;20.02
58102;BMP280;52034;51.926;6.320;2023-07-29T00:37:36;100624.72;;;19.99
58102;BMP280;52034;51.926;6.320;2023-07-29T00:38:38;100631.16;;;19.99
58102;BMP280;52034;51.926;6.320;2023-07-29T00:39:38;100639.00;;;19.93
58102;BMP280;52034;51.926;6.320;2023-07-29T00:40:39;100634.03;;;19.92
58102;BMP280;52034;51.926;6.320;2023-07-29T00:41:40;100633.34;;;19.87
58102;BMP280;52034;51.926;6.320;2023-07-29T00:42:40;100627.69;;;19.85
58102;BMP280;52034;51.926;6.320;2023-07-29T00:43:44;100631.25;;;19.84
58102;BMP280;52034;51.926;6.320;2023-07-29T00:44:44;100627.69;;;19.77
58102;BMP280;52034;51.926;6.320;2023-07-29T00:45:44;100626.28;;;19.76
58102;BMP280;52034;51.926;6.320;2023-07-29T00:46:46;100629.91;;;19.73
58102;BMP280;52034;51.926;6.320;2023-07-29T00:47:47;100625.63;;;19.70
58102;BMP280;52034;51.926;6.320;2023-07-29T00:48:47;100614.97;;;19.62
58102;BMP280;52034;51.926;6.320;2023-07-29T00:49:49;100619.22;;;19.61
58102;BMP280;52034;51.926;6.320;2023-07-29T00:50:50;100616.41;;;19.63
58102;BMP280;52034;51.926;6.320;2023-07-29T00:51:50;100617.81;;;19.60
58102;BMP280;52034;51.926;6.320;2023-07-29T00:52:50;100608.56;;;19.56
58102;BMP280;52034;51.926;6.320;2023-07-29T00:53:51;100615.03;;;19.50
58102;BMP280;52034;51.926;6.320;2023-07-29T00:54:51;100617.16;;;19.50
58102;BMP280;52034;51.926;6.320;2023-07-29T00:55:54;100617.88;;;19.52
58102;BMP280;52034;51.926;6.320;2023-07-29T00:56:54;100612.16;;;19.52
58102;BMP280;52034;51.926;6.320;2023-07-29T00:57:54;100608.63;;;19.54
58102;BMP280;52034;51.926;6.320;2023-07-29T00:58:55;100605.75;;;19.52
58102;BMP280;52034;51.926;6.320;2023-07-29T00:59:59;100607.16;;;19.57
58102;BMP280;52034;51.926;6.320;2023-07-29T01:01:00;100614.28;;;19.60
58102;BMP280;52034;51.926;6.320;2023-07-29T01:02:00;100612.16;;;19.56
58102;BMP280;52034;51.926;6.320;2023-07-29T01:03:01;100627.06;;;19.63
58102;BMP280;52034;51.926;6.320;2023-07-29T01:04:01;100617.06;;;19.66
58102;BMP280;52034;51.926;6.320;2023-07-29T01:05:02;100614.94;;;19.66
58102;BMP280;52034;51.926;6.320;2023-07-29T01:08:50;100608.56;;;19.56
58102;BMP280;52034;51.926;6.320;2023-07-29T01:10:01;100600.75;;;19.56
58102;BMP280;52034;51.926;6.320;2023-07-29T01:11:20;100608.56;;;19.62
58102;BMP280;52034;51.926;6.320;2023-07-29T01:13:53;100602.13;;;19.61
58102;BMP280;52034;51.926;6.320;2023-07-29T01:15:18;100592.88;;;19.63
58102;BMP280;52034;51.926;6.320;2023-07-29T01:16:28;100603.56;;;19.60
58102;BMP280;52034;51.926;6.320;2023-07-29T01:17:33;100612.13;;;19.64
58102;BMP280;52034;51.926;6.320;2023-07-29T01:18:38;100609.97;;;19.67
58102;BMP280;52034;51.926;6.320;2023-07-29T01:19:43;100619.22;;;19.71
58102;BMP280;52034;51.926;6.320;2023-07-29T01:20:50;100619.88;;;19.74
58102;BMP280;52034;51.926;6.320;2023-07-29T01:21:51;100609.19;;;19.76
58102;BMP280;52034;51.926;6.320;2023-07-29T01:22:51;100617.72;;;19.80
58102;BMP280;52034;51.926;6.320;2023-07-29T01:23:52;100611.28;;;19.82
58102;BMP280;52034;51.926;6.320;2023-07-29T01:24:53;100607.03;;;19.83
58102;BMP280;52034;51.926;6.320;2023-07-29T01:25:54;100616.97;;;19.82
58102;BMP280;52034;51.926;6.320;2023-07-29T01:26:54;100609.88;;;19.85
58102;BMP280;52034;51.926;6.320;2023-07-29T01:27:55;100613.44;;;19.85
58102;BMP280;52034;51.926;6.320;2023-07-29T01:28:57;100607.75;;;19.85
58102;BMP280;52034;51.926;6.320;2023-07-29T01:29:59;100610.53;;;19.87
58102;BMP280;52034;51.926;6.320;2023-07-29T01:32:12;100608.41;;;19.86
58102;BMP280;52034;51.926;6.320;2023-07-29T01:33:21;100602.03;;;19.85
58102;BMP280;52034;51.926;6.320;2023-07-29T01:34:34;100596.34;;;19.83
58102;BMP280;52034;51.926;6.320;2023-07-29T01:35:48;100595.63;;;19.83
58102;BMP280;52034;51.926;6.320;2023-07-29T01:36:51;100592.09;;;19.78
58102;BMP280;52034;51.926;6.320;2023-07-29T01:37:55;100589.22;;;19.80
58102;BMP280;52034;51.926;6.320;2023-07-29T01:38:57;100592.09;;;19.78
58102;BMP280;52034;51.926;6.320;2023-07-29T01:39:59;100592.88;;;19.73
58102;BMP280;52034;51.926;6.320;2023-07-29T01:41:04;100593.56;;;19.69
58102;BMP280;52034;51.926;6.320;2023-07-29T01:42:06;100592.84;;;19.69
58102;BMP280;52034;51.926;6.320;2023-07-29T01:43:07;100588.59;;;19.70
58102;BMP280;52034;51.926;6.320;2023-07-29T01:44:09;100592.13;;;19.70
58102;BMP280;52034;51.926;6.320;2023-07-29T01:45:10;100591.44;;;19.70
58102;BMP280;52034;51.926;6.320;2023-07-29T01:46:11;100594.97;;;19.70
58102;BMP280;52034;51.926;6.320;2023-07-29T01:47:14;100590.72;;;19.69
58102;BMP280;52034;51.926;6.320;2023-07-29T01:48:15;100587.88;;;19.69
58102;BMP280;52034;51.926;6.320;2023-07-29T01:49:15;100586.47;;;19.66
58102;BMP280;52034;51.926;6.320;2023-07-29T01:50:15;100590.75;;;19.65
58102;BMP280;52034;51.926;6.320;2023-07-29T01:51:16;100597.16;;;19.68
58102;BMP280;52034;51.926;6.320;2023-07-29T01:52:16;100592.19;;;19.64
58102;BMP280;52034;51.926;6.320;2023-07-29T01:53:17;100585.78;;;19.62
58102;BMP280;52034;51.926;6.320;2023-07-29T01:54:17;100592.19;;;19.62
58102;BMP280;52034;51.926;6.320;2023-07-29T01:55:17;100588.66;;;19.60
58102;BMP280;52034;51.926;6.320;2023-07-29T01:56:18;100588.66;;;19.58
58102;BMP280;52034;51.926;6.320;2023-07-29T01:57:26;100585.13;;;19.49
58102;BMP280;52034;51.926;6.320;2023-07-29T01:58:26;100589.44;;;19.46
58102;BMP280;52034;51.926;6.320;2023-07-29T01:59:26;100585.88;;;19.42
58102;BMP280;52034;51.926;6.320;2023-07-29T02:00:27;100585.88;;;19.42
58102;BMP280;52034;51.926;6.320;2023-07-29T02:01:27;100586.59;;;19.42
58102;BMP280;52034;51.926;6.320;2023-07-29T02:02:27;100580.19;;;19.44
58102;BMP280;52034;51.926;6.320;2023-07-29T02:03:28;100585.13;;;19.49
58102;BMP280;52034;51.926;6.320;2023-07-29T02:04:28;100587.97;;;19.51
58102;BMP280;52034;51.926;6.320;2023-07-29T02:05:28;100586.53;;;19.52
58102;BMP280;52034;51.926;6.320;2023-07-29T02:06:29;100587.97;;;19.47
58102;BMP280;52034;51.926;6.320;2023-07-29T02:07:30;100591.53;;;19.54
58102;BMP280;52034;51.926;6.320;2023-07-29T02:08:30;100587.97;;;19.55
58102;BMP280;52034;51.926;6.320;2023-07-29T02:09:30;100591.50;;;19.56
58102;BMP280;52034;51.926;6.320;2023-07-29T02:10:32;100584.38;;;19.57
58102;BMP280;52034;51.926;6.320;2023-07-29T02:11:32;100587.22;;;19.59
58102;BMP280;52034;51.926;6.320;2023-07-29T02:12:32;100577.94;;;19.62
58102;BMP280;52034;51.926;6.320;2023-07-29T02:13:33;100580.81;;;19.56
58102;BMP280;52034;51.926;6.320;2023-07-29T02:14:33;100580.81;;;19.56
58102;BMP280;52034;51.926;6.320;2023-07-29T02:15:34;100588.63;;;19.62
58102;BMP280;52034;51.926;6.320;2023-07-29T02:16:34;100583.63;;;19.60
58102;BMP280;52034;51.926;6.320;2023-07-29T02:17:35;100582.94;;;19.64
58102;BMP280;52034;51.926;6.320;2023-07-29T02:18:36;100582.19;;;19.67
58102;BMP280;52034;51.926;6.320;2023-07-29T02:19:36;100585.75;;;19.70
58102;BMP280;52034;51.926;6.320;2023-07-29T02:20:37;100586.44;;;19.72
58102;BMP280;52034;51.926;6.320;2023-07-29T02:21:37;100577.84;;;19.74
58102;BMP280;52034;51.926;6.320;2023-07-29T02:22:37;100575.72;;;19.75
58102;BMP280;52034;51.926;6.320;2023-07-29T02:23:38;100576.44;;;19.75
58102;BMP280;52034;51.926;6.320;2023-07-29T02:24:38;100570.78;;;19.71
58102;BMP280;52034;51.926;6.320;2023-07-29T02:25:39;100564.38;;;19.71
58102;BMP280;52034;51.926;6.320;2023-07-29T02:26:39;100567.22;;;19.73
58102;BMP280;52034;51.926;6.320;2023-07-29T02:27:39;100564.38;;;19.71
58102;BMP280;52034;51.926;6.320;2023-07-29T02:28:40;100565.81;;;19.66
58102;BMP280;52034;51.926;6.320;2023-07-29T02:29:40;100570.09;;;19.67
58102;BMP280;52034;51.926;6.320;2023-07-29T02:30:41;100564.41;;;19.67
58102;BMP280;52034;51.926;6.320;2023-07-29T02:31:44;100572.19;;;19.70
58102;BMP280;52034;51.926;6.320;2023-07-29T02:32:44;100577.91;;;19.72
58102;BMP280;52034;51.926;6.320;2023-07-29T02:33:45;100564.38;;;19.71
58102;BMP280;52034;51.926;6.320;2023-07-29T02:34:45;100570.75;;;19.73
58102;BMP280;52034;51.926;6.320;2023-07-29T02:35:46;100561.53;;;19.71
58102;BMP280;52034;51.926;6.320;2023-07-29T02:36:46;100566.53;;;19.68
58102;BMP280;52034;51.926;6.320;2023-07-29T02:37:47;100570.09;;;19.65
58102;BMP280;52034;51.926;6.320;2023-07-29T02:38:47;100565.13;;;19.65
58102;BMP280;52034;51.926;6.320;2023-07-29T02:39:48;100568.66;;;19.66
58102;BMP280;52034;51.926;6.320;2023-07-29T02:40:49;100571.53;;;19.64
58102;BMP280;52034;51.926;6.320;2023-07-29T02:41:49;100567.97;;;19.65
58102;BMP280;52034;51.926;6.320;2023-07-29T02:42:49;100562.97;;;19.66
58102;BMP280;52034;51.926;6.320;2023-07-29T02:43:50;100560.19;;;19.60
58102;BMP280;52034;51.926;6.320;2023-07-29T02:44:50;100567.97;;;19.63
58102;BMP280;52034;51.926;6.320;2023-07-29T02:45:51;100556.59;;;19.57
58102;BMP280;52034;51.926;6.320;2023-07-29T02:46:51;100568.72;;;19.58
58102;BMP280;52034;51.926;6.320;2023-07-29T02:47:53;100565.88;;;19.60
58102;BMP280;52034;51.926;6.320;2023-07-29T02:48:53;100572.28;;;19.54
58102;BMP280;52034;51.926;6.320;2023-07-29T02:49:54;100562.31;;;19.57
58102;BMP280;52034;51.926;6.320;2023-07-29T02:50:55;100563.03;;;19.60
58102;BMP280;52034;51.926;6.320;2023-07-29T02:51:55;100574.41;;;19.56
58102;BMP280;52034;51.926;6.320;2023-07-29T02:52:56;100560.19;;;19.54
58102;BMP280;52034;51.926;6.320;2023-07-29T02:53:56;100573.00;;;19.53
58102;BMP280;52034;51.926;6.320;2023-07-29T02:54:57;100571.59;;;19.52
58102;BMP280;52034;51.926;6.320;2023-07-29T02:55:57;100576.56;;;19.55
58102;BMP280;52034;51.926;6.320;2023-07-29T02:56:57;100580.13;;;19.54
58102;BMP280;52034;51.926;6.320;2023-07-29T02:57:58;100580.84;;;19.54
58102;BMP280;52034;51.926;6.320;2023-07-29T02:58:59;100576.56;;;19.55
58102;BMP280;52034;51.926;6.320;2023-07-29T03:00:00;100576.53;;;19.57
58102;BMP280;52034;51.926;6.320;2023-07-29T03:01:05;100569.44;;;19.58
58102;BMP280;52034;51.926;6.320;2023-07-29T03:02:06;100574.44;;;19.60
58102;BMP280;52034;51.926;6.320;2023-07-29T03:03:06;100569.44;;;19.58
58102;BMP280;52034;51.926;6.320;2023-07-29T03:04:06;100573.66;;;19.61
58102;BMP280;52034;51.926;6.320;2023-07-29T03:05:08;100569.44;;;19.58
58102;BMP280;52034;51.926;6.320;2023-07-29T03:06:10;100572.25;;;19.62
58102;BMP280;52034;51.926;6.320;2023-07-29T03:07:11;100575.81;;;19.61
58102;BMP280;52034;51.926;6.320;2023-07-29T03:08:11;100571.56;;;19.58
58102;BMP280;52034;51.926;6.320;2023-07-29T03:09:13;100566.56;;;19.60
58102;BMP280;52034;51.926;6.320;2023-07-29T03:10:13;100558.75;;;19.57
58102;BMP280;52034;51.926;6.320;2023-07-29T03:11:16;100558.03;;;19.56
58102;BMP280;52034;51.926;6.320;2023-07-29T03:12:16;100558.03;;;19.56
58102;BMP280;52034;51.926;6.320;2023-07-29T03:13:16;100561.59;;;19.57
58102;BMP280;52034;51.926;6.320;2023-07-29T03:14:17;100562.34;;;19.55
58102;BMP280;52034;51.926;6.320;2023-07-29T03:15:17;100558.75;;;19.59
58102;BMP280;52034;51.926;6.320;2023-07-29T03:16:18;100560.19;;;19.60
58102;BMP280;52034;51.926;6.320;2023-07-29T03:17:27;100565.88;;;19.60
58102;BMP280;52034;51.926;6.320;2023-07-29T03:18:27;100568.72;;;19.58
58102;BMP280;52034;51.926;6.320;2023-07-29T03:19:27;100566.56;;;19.62
58102;BMP280;52034;51.926;6.320;2023-07-29T03:20:28;100572.94;;;19.67
58102;BMP280;52034;51.926;6.320;2023-07-29T03:21:28;100570.81;;;19.65
58102;BMP280;52034;51.926;6.320;2023-07-29T03:22:29;100565.09;;;19.67
58102;BMP280;52034;51.926;6.320;2023-07-29T03:23:29;100575.75;;;19.69
58102;BMP280;52034;51.926;6.320;2023-07-29T03:24:30;100573.63;;;19.69
58102;BMP280;52034;51.926;6.320;2023-07-29T03:25:30;100566.53;;;19.66
58102;BMP280;52034;51.926;6.320;2023-07-29T03:26:31;100560.84;;;19.68
58102;BMP280;52034;51.926;6.320;2023-07-29T03:27:31;100563.66;;;19.70
58102;BMP280;52034;51.926;6.320;2023-07-29T03:28:32;100570.78;;;19.71
58102;BMP280;52034;51.926;6.320;2023-07-29T03:29:33;100575.78;;;19.73
58102;BMP280;52034;51.926;6.320;2023-07-29T03:30:33;100575.03;;;19.70
58102;BMP280;52034;51.926;6.320;2023-07-29T03:31:34;100571.50;;;19.70
58102;BMP280;52034;51.926;6.320;2023-07-29T03:32:34;100572.22;;;19.72
58102;BMP280;52034;51.926;6.320;2023-07-29T03:33:35;100569.38;;;19.68
58102;BMP280;52034;51.926;6.320;2023-07-29T03:34:35;100563.66;;;19.70
58102;BMP280;52034;51.926;6.320;2023-07-29T03:35:35;100568.59;;;19.76
58102;BMP280;52034;51.926;6.320;2023-07-29T03:36:36;100570.03;;;19.77
58102;BMP280;52034;51.926;6.320;2023-07-29T03:37:36;100566.47;;;19.78
58102;BMP280;52034;51.926;6.320;2023-07-29T03:38:37;100565.75;;;19.76
58102;BMP280;52034;51.926;6.320;2023-07-29T03:39:40;100569.31;;;19.76
58102;BMP280;52034;51.926;6.320;2023-07-29T03:40:41;100561.50;;;19.77
58102;BMP280;52034;51.926;6.320;2023-07-29T03:41:41;100566.47;;;19.78
58102;BMP280;52034;51.926;6.320;2023-07-29T03:42:41;100564.31;;;19.79
58102;BMP280;52034;51.926;6.320;2023-07-29T03:43:42;100569.31;;;19.74
58102;BMP280;52034;51.926;6.320;2023-07-29T03:44:42;100574.28;;;19.78
58102;BMP280;52034;51.926;6.320;2023-07-29T03:45:43;100572.16;;;19.78
58102;BMP280;52034;51.926;6.320;2023-07-29T03:46:43;100570.75;;;19.75
58102;BMP280;52034;51.926;6.320;2023-07-29T03:47:44;100571.44;;;19.78
58102;BMP280;52034;51.926;6.320;2023-07-29T03:48:45;100564.34;;;19.77
58102;BMP280;52034;51.926;6.320;2023-07-29T03:49:45;100566.44;;;19.80
58102;BMP280;52034;51.926;6.320;2023-07-29T03:50:47;100562.16;;;19.81
58102;BMP280;52034;51.926;6.320;2023-07-29T03:51:47;100559.31;;;19.81
58102;BMP280;52034;51.926;6.320;2023-07-29T03:52:48;100559.31;;;19.77
58102;BMP280;52034;51.926;6.320;2023-07-29T03:53:48;100556.47;;;19.81
58102;BMP280;52034;51.926;6.320;2023-07-29T03:54:48;100562.84;;;19.82
58102;BMP280;52034;51.926;6.320;2023-07-29T03:55:49;100555.78;;;19.81
58102;BMP280;52034;51.926;6.320;2023-07-29T03:56:50;100548.66;;;19.76
58102;BMP280;52034;51.926;6.320;2023-07-29T03:57:50;100550.78;;;19.77
58102;BMP280;52034;51.926;6.320;2023-07-29T03:58:52;100545.81;;;19.76
58102;BMP280;52034;51.926;6.320;2023-07-29T03:59:52;100552.22;;;19.74
58102;BMP280;52034;51.926;6.320;2023-07-29T04:00:53;100549.38;;;19.76
58102;BMP280;52034;51.926;6.320;2023-07-29T04:01:53;100546.56;;;19.72
58102;BMP280;52034;51.926;6.320;2023-07-29T04:02:54;100541.56;;;19.69
58102;BMP280;52034;51.926;6.320;2023-07-29T04:03:54;100547.28;;;19.69
58102;BMP280;52034;51.926;6.320;2023-07-29T04:04:55;100546.56;;;19.70
58102;BMP280;52034;51.926;6.320;2023-07-29T04:05:55;100548.72;;;19.68
58102;BMP280;52034;51.926;6.320;2023-07-29T04:06:56;100540.91;;;19.66
58102;BMP280;52034;51.926;6.320;2023-07-29T04:07:57;100543.03;;;19.66
58102;BMP280;52034;51.926;6.320;2023-07-29T04:08:57;100535.91;;;19.65
58102;BMP280;52034;51.926;6.320;2023-07-29T04:09:58;100543.75;;;19.64
58102;BMP280;52034;51.926;6.320;2023-07-29T04:10:59;100540.16;;;19.66
58102;BMP280;52034;51.926;6.320;2023-07-29T04:11:59;100540.91;;;19.64
58102;BMP280;52034;51.926;6.320;2023-07-29T04:13:00;100547.31;;;19.65
58102;BMP280;52034;51.926;6.320;2023-07-29T04:14:00;100547.31;;;19.63
58102;BMP280;52034;51.926;6.320;2023-07-29T04:15:00;100545.91;;;19.64
58102;BMP280;52034;51.926;6.320;2023-07-29T04:16:01;100545.91;;;19.62
58102;BMP280;52034;51.926;6.320;2023-07-29T04:17:02;100555.16;;;19.60
58102;BMP280;52034;51.926;6.320;2023-07-29T04:18:02;100553.72;;;19.61
58102;BMP280;52034;51.926;6.320;2023-07-29T04:19:03;100544.47;;;19.61
58102;BMP280;52034;51.926;6.320;2023-07-29T04:20:04;100551.63;;;19.58
58102;BMP280;52034;51.926;6.320;2023-07-29T04:21:08;100549.50;;;19.56
58102;BMP280;52034;51.926;6.320;2023-07-29T04:22:09;100550.22;;;19.57
58102;BMP280;52034;51.926;6.320;2023-07-29T04:23:09;100551.66;;;19.54
58102;BMP280;52034;51.926;6.320;2023-07-29T04:24:10;100545.25;;;19.51
58102;BMP280;52034;51.926;6.320;2023-07-29T04:25:10;100549.53;;;19.52
58102;BMP280;52034;51.926;6.320;2023-07-29T04:26:11;100550.25;;;19.49
58102;BMP280;52034;51.926;6.320;2023-07-29T04:27:11;100543.88;;;19.46
58102;BMP280;52034;51.926;6.320;2023-07-29T04:28:11;100551.72;;;19.44
58102;BMP280;52034;51.926;6.320;2023-07-29T04:29:12;100553.84;;;19.43
58102;BMP280;52034;51.926;6.320;2023-07-29T04:30:13;100564.50;;;19.45
58102;BMP280;52034;51.926;6.320;2023-07-29T04:31:13;100557.38;;;19.46
58102;BMP280;52034;51.926;6.320;2023-07-29T04:32:14;100563.84;;;19.42
58102;BMP280;52034;51.926;6.320;2023-07-29T04:33:16;100557.41;;;19.40
58102;BMP280;52034;51.926;6.320;2023-07-29T04:34:17;100558.13;;;19.40
58102;BMP280;52034;51.926;6.320;2023-07-29T04:35:18;100567.38;;;19.43
58102;BMP280;52034;51.926;6.320;2023-07-29T04:36:18;100565.25;;;19.39
58102;BMP280;52034;51.926;6.320;2023-07-29T04:37:20;100564.53;;;19.39
58102;BMP280;52034;51.926;6.320;2023-07-29T04:38:20;100559.56;;;19.39
58102;BMP280;52034;51.926;6.320;2023-07-29T04:39:20;100555.28;;;19.38
58102;BMP280;52034;51.926;6.320;2023-07-29T04:40:21;100556.69;;;19.41
58102;BMP280;52034;51.926;6.320;2023-07-29T04:41:22;100548.22;;;19.33
58102;BMP280;52034;51.926;6.320;2023-07-29T04:42:25;100556.75;;;19.33
58102;BMP280;52034;51.926;6.320;2023-07-29T04:43:27;100547.47;;;19.33
58102;BMP280;52034;51.926;6.320;2023-07-29T04:44:27;100557.44;;;19.38
58102;BMP280;52034;51.926;6.320;2023-07-29T04:45:30;100542.50;;;19.33
58102;BMP280;52034;51.926;6.320;2023-07-29T04:46:31;100543.19;;;19.36
58102;BMP280;52034;51.926;6.320;2023-07-29T04:47:31;100537.53;;;19.34
58102;BMP280;52034;51.926;6.320;2023-07-29T04:48:31;100529.66;;;19.38
58102;BMP280;52034;51.926;6.320;2023-07-29T04:49:32;100524.00;;;19.36
58102;BMP280;52034;51.926;6.320;2023-07-29T04:50:32;100529.66;;;19.40
58102;BMP280;52034;51.926;6.320;2023-07-29T04:51:33;100522.53;;;19.41
58102;BMP280;52034;51.926;6.320;2023-07-29T04:52:33;100523.97;;;19.38
58102;BMP280;52034;51.926;6.320;2023-07-29T04:53:34;100530.34;;;19.43
58102;BMP280;52034;51.926;6.320;2023-07-29T04:54:36;100529.63;;;19.44
58102;BMP280;52034;51.926;6.320;2023-07-29T04:55:36;100525.38;;;19.43
58102;BMP280;52034;51.926;6.320;2023-07-29T04:56:37;100525.31;;;19.47
58102;BMP280;52034;51.926;6.320;2023-07-29T04:57:37;100518.25;;;19.46
58102;BMP280;52034;51.926;6.320;2023-07-29T04:58:37;100523.91;;;19.50
58102;BMP280;52034;51.926;6.320;2023-07-29T04:59:38;100521.06;;;19.50
58102;BMP280;52034;51.926;6.320;2023-07-29T05:00:38;100522.50;;;19.49
58102;BMP280;52034;51.926;6.320;2023-07-29T05:01:39;100523.91;;;19.52
58102;BMP280;52034;51.926;6.320;2023-07-29T05:02:39;100532.41;;;19.54
58102;BMP280;52034;51.926;6.320;2023-07-29T05:03:39;100527.44;;;19.53
58102;BMP280;52034;51.926;6.320;2023-07-29T05:04:41;100524.59;;;19.53
58102;BMP280;52034;51.926;6.320;2023-07-29T05:05:41;100536.72;;;19.55
58102;BMP280;52034;51.926;6.320;2023-07-29T05:06:42;100536.72;;;19.51
58102;BMP280;52034;51.926;6.320;2023-07-29T05:07:42;100547.38;;;19.53
58102;BMP280;52034;51.926;6.320;2023-07-29T05:08:42;100538.84;;;19.55
58102;BMP280;52034;51.926;6.320;2023-07-29T05:09:43;100550.91;;;19.57
58102;BMP280;52034;51.926;6.320;2023-07-29T05:10:43;100553.78;;;19.55
58102;BMP280;52034;51.926;6.320;2023-07-29T05:11:44;100557.31;;;19.56
58102;BMP280;52034;51.926;6.320;2023-07-29T05:12:45;100563.75;;;19.54
58102;BMP280;52034;51.926;6.320;2023-07-29T05:13:45;100565.19;;;19.55
58102;BMP280;52034;51.926;6.320;2023-07-29T05:14:46;100570.88;;;19.53
58102;BMP280;52034;51.926;6.320;2023-07-29T05:15:47;100569.47;;;19.50
58102;BMP280;52034;51.926;6.320;2023-07-29T05:16:48;100570.88;;;19.51
58102;BMP280;52034;51.926;6.320;2023-07-29T05:17:49;100573.75;;;19.49
58102;BMP280;52034;51.926;6.320;2023-07-29T05:18:49;100576.59;;;19.47
58102;BMP280;52034;51.926;6.320;2023-07-29T05:19:50;100577.31;;;19.46
58102;BMP280;52034;51.926;6.320;2023-07-29T05:20:50;100585.16;;;19.45
58102;BMP280;52034;51.926;6.320;2023-07-29T05:21:50;100578.06;;;19.40
58102;BMP280;52034;51.926;6.320;2023-07-29T05:22:51;100578.06;;;19.38
58102;BMP280;52034;51.926;6.320;2023-07-29T05:23:51;100583.75;;;19.34
58102;BMP280;52034;51.926;6.320;2023-07-29T05:24:51;100585.19;;;19.37
58102;BMP280;52034;51.926;6.320;2023-07-29T05:25:52;100582.34;;;19.37
58102;BMP280;52034;51.926;6.320;2023-07-29T05:26:52;100580.22;;;19.38
58102;BMP280;52034;51.926;6.320;2023-07-29T05:27:52;100587.31;;;19.41
58102;BMP280;52034;51.926;6.320;2023-07-29T05:28:53;100582.34;;;19.39
58102;BMP280;52034;51.926;6.320;2023-07-29T05:29:53;100581.59;;;19.39
58102;BMP280;52034;51.926;6.320;2023-07-29T05:30:53;100583.03;;;19.44
58102;BMP280;52034;51.926;6.320;2023-07-29T05:31:54;100580.88;;;19.46
58102;BMP280;52034;51.926;6.320;2023-07-29T05:32:54;100569.47;;;19.48
58102;BMP280;52034;51.926;6.320;2023-07-29T05:33:54;100576.56;;;19.51
58102;BMP280;52034;51.926;6.320;2023-07-29T05:34:55;100576.56;;;19.53
58102;BMP280;52034;51.926;6.320;2023-07-29T05:35:57;100585.81;;;19.58
58102;BMP280;52034;51.926;6.320;2023-07-29T05:36:57;100581.56;;;19.55
58102;BMP280;52034;51.926;6.320;2023-07-29T05:37:57;100580.13;;;19.54
58102;BMP280;52034;51.926;6.320;2023-07-29T05:38:58;100580.09;;;19.56
58102;BMP280;52034;51.926;6.320;2023-07-29T05:39:58;100575.88;;;19.51
58102;BMP280;52034;51.926;6.320;2023-07-29T05:40:59;100577.25;;;19.56
58102;BMP280;52034;51.926;6.320;2023-07-29T05:42:01;100581.53;;;19.59
58102;BMP280;52034;51.926;6.320;2023-07-29T05:43:02;100581.56;;;19.55
58102;BMP280;52034;51.926;6.320;2023-07-29T05:44:04;100576.56;;;19.53
58102;BMP280;52034;51.926;6.320;2023-07-29T05:45:05;100578.00;;;19.50
58102;BMP280;52034;51.926;6.320;2023-07-29T05:46:06;100578.69;;;19.53
58102;BMP280;52034;51.926;6.320;2023-07-29T05:47:06;100583.69;;;19.52
58102;BMP280;52034;51.926;6.320;2023-07-29T05:48:07;100582.28;;;19.49
58102;BMP280;52034;51.926;6.320;2023-07-29T05:49:07;100577.28;;;19.52
58102;BMP280;52034;51.926;6.320;2023-07-29T05:50:08;100585.81;;;19.52
58102;BMP280;52034;51.926;6.320;2023-07-29T05:51:09;100592.22;;;19.54
58102;BMP280;52034;51.926;6.320;2023-07-29T05:52:10;100590.81;;;19.53